createdAt,value
2022-10-24T00:09:11.973Z,100212.66
2022-10-24T00:14:13.625Z,100216.19
2022-10-24T00:19:15.259Z,100215.28
2022-10-24T00:24:16.991Z,100210.84
2022-10-24T00:29:18.652Z,100209.06
2022-10-24T00:34:20.520Z,100212.59
2022-10-24T00:39:22.289Z,100211.72
2022-10-24T00:44:29.123Z,100209.16
2022-10-24T00:49:43.957Z,100199.56
2022-10-24T00:54:45.642Z,100197.84
2022-10-24T00:59:49.446Z,100191.75
2022-10-24T01:04:51.139Z,100192.69
2022-10-24T01:09:52.624Z,100192.69
2022-10-24T01:15:03.201Z,100180.59
2022-10-24T01:20:13.165Z,100178.88
2022-10-24T01:25:27.918Z,100181.56
2022-10-24T01:30:29.760Z,100165.00
2022-10-24T01:35:41.077Z,100169.34
2022-10-24T01:41:00.269Z,100151.84
2022-10-24T01:46:03.635Z,100162.13
2022-10-24T01:51:05.411Z,100157.63
2022-10-24T01:56:07.633Z,100161.03
2022-10-24T02:01:14.661Z,100157.41
2022-10-24T02:06:21.243Z,100152.97
2022-10-24T02:11:22.898Z,100158.09
2022-10-24T02:16:24.524Z,100150.16
2022-10-24T02:21:52.373Z,100144.91
2022-10-24T02:27:00.095Z,100141.41
2022-10-24T02:32:01.769Z,100140.47
2022-10-24T02:37:03.424Z,100143.16
2022-10-24T02:42:05.099Z,100131.78
2022-10-24T02:47:06.755Z,100132.72
2022-10-24T02:52:08.460Z,100124.91
2022-10-24T02:57:10.089Z,100126.72
2022-10-24T03:02:11.788Z,100123.25
2022-10-24T03:07:13.493Z,100111.91
2022-10-24T03:12:18.313Z,100098.81
2022-10-24T03:17:19.977Z,100126.84
2022-10-24T03:22:21.691Z,100128.59
2022-10-24T03:27:23.379Z,100119.84
2022-10-24T03:37:31.550Z,100103.22
2022-10-24T03:42:33.183Z,100095.34
2022-10-24T03:47:34.826Z,100092.72
2022-10-24T03:52:36.453Z,100108.44
2022-10-24T03:57:38.090Z,100101.44
2022-10-24T04:02:41.641Z,100104.03
2022-10-24T04:07:46.108Z,100100.50
2022-10-24T04:12:48.040Z,100099.53
2022-10-24T04:17:49.691Z,100103.03
2022-10-24T04:22:51.350Z,100109.19
2022-10-24T04:27:52.969Z,100113.56
2022-10-24T04:32:54.595Z,100117.09
2022-10-24T04:37:56.222Z,100095.25
2022-10-24T04:42:57.898Z,100104.88
2022-10-24T04:47:59.554Z,100102.31
2022-10-24T04:53:01.776Z,100103.28
2022-10-24T04:58:03.822Z,100105.91
2022-10-24T05:03:05.527Z,100101.59
2022-10-24T05:08:07.186Z,100094.63
2022-10-24T05:13:08.915Z,100110.41
2022-10-24T05:18:10.591Z,100108.69
2022-10-24T05:23:12.274Z,100116.53
2022-10-24T05:28:13.954Z,100113.91
2022-10-24T05:33:15.680Z,100110.41
2022-10-24T05:38:17.334Z,100093.78
2022-10-24T05:43:19.096Z,100081.56
2022-10-24T05:48:20.780Z,100092.00
2022-10-24T05:53:22.403Z,100086.75
2022-10-24T05:58:24.880Z,100076.19
2022-10-24T06:03:26.557Z,100082.91
2022-10-24T06:08:28.203Z,100080.13
2022-10-24T06:13:33.817Z,100087.03
2022-10-24T06:18:38.300Z,100092.09
2022-10-24T06:23:39.967Z,100093.81
2022-10-24T06:28:41.656Z,100102.53
2022-10-24T06:33:43.336Z,100101.69
2022-10-24T06:38:45.028Z,100106.03
2022-10-24T06:43:46.810Z,100120.00
2022-10-24T06:48:48.828Z,100116.47
2022-10-24T06:53:50.482Z,100113.81
2022-10-24T06:58:52.170Z,100111.19
2022-10-24T07:03:54.231Z,100126.09
2022-10-24T07:08:57.154Z,100125.19
2022-10-24T07:14:00.918Z,100109.47
2022-10-24T07:19:04.060Z,100126.94
2022-10-24T07:24:06.214Z,100129.44
2022-10-24T07:29:07.871Z,100136.28
2022-10-24T07:34:09.620Z,100128.34
2022-10-24T07:39:12.033Z,100125.59
2022-10-24T07:44:13.685Z,100122.84
2022-10-24T07:49:15.326Z,100130.63
2022-10-24T07:54:17.056Z,100133.97
2022-10-24T07:59:40.604Z,100128.47
2022-10-24T08:04:40.543Z,100126.47
2022-10-24T08:09:43.711Z,100130.72
2022-10-24T08:14:45.342Z,100126.97
2022-10-24T08:19:47.045Z,100128.47
2022-10-24T08:24:48.755Z,100118.47
2022-10-24T08:29:50.408Z,100117.88
2022-10-24T08:34:52.026Z,100130.53
2022-10-24T08:39:56.573Z,100128.31
2022-10-24T08:44:58.237Z,100110.19
2022-10-24T08:50:21.690Z,100117.31
2022-10-24T08:55:47.697Z,100122.91
2022-10-24T09:00:48.805Z,100117.19
2022-10-24T09:05:52.144Z,100115.25
2022-10-24T09:11:01.147Z,100114.88
2022-10-24T09:16:02.843Z,100114.56
2022-10-24T09:21:08.572Z,100112.34
2022-10-24T09:26:15.969Z,100107.50
2022-10-24T09:31:22.028Z,100107.22
2022-10-24T09:36:25.011Z,100098.97
2022-10-24T09:41:28.697Z,100096.88
2022-10-24T09:46:39.580Z,100114.88
2022-10-24T09:52:04.669Z,100108.22
2022-10-24T09:57:11.524Z,100121.97
2022-10-24T10:02:20.530Z,100120.00
2022-10-24T10:07:26.158Z,100118.22
2022-10-24T10:12:38.937Z,100113.66
2022-10-24T10:17:40.851Z,100113.66
2022-10-24T10:22:42.468Z,100112.06
2022-10-24T10:27:44.578Z,100122.63
2022-10-24T10:33:15.151Z,100116.38
2022-10-24T10:38:37.627Z,100119.72
2022-10-24T10:43:48.337Z,100119.38
2022-10-24T10:49:10.117Z,100117.97
2022-10-24T10:54:30.008Z,100121.31
2022-10-24T10:59:59.211Z,100126.38
2022-10-24T11:05:27.232Z,100123.34
2022-10-24T11:10:32.652Z,100158.31
2022-10-24T11:15:40.334Z,100137.38
2022-10-24T11:20:45.615Z,100143.69
2022-10-24T11:25:52.515Z,100152.59
2022-10-24T11:31:04.440Z,100136.63
2022-10-24T11:36:07.929Z,100142.66
2022-10-24T11:41:43.663Z,100143.53
2022-10-24T11:46:47.801Z,100143.34
2022-10-24T11:51:56.715Z,100147.56
2022-10-24T11:57:08.452Z,100132.44
2022-10-24T12:02:35.923Z,100135.47
2022-10-24T12:07:44.925Z,100142.66
2022-10-24T12:13:08.531Z,100146.06
2022-10-24T12:18:38.153Z,100140.09
2022-10-24T12:23:40.622Z,100143.75
2022-10-24T12:28:43.503Z,100150.44
2022-10-24T12:33:46.369Z,100134.94
2022-10-24T12:38:57.051Z,100148.41
2022-10-24T12:44:37.257Z,100152.97
2022-10-24T12:49:38.931Z,100150.75
2022-10-24T12:54:44.706Z,100149.25
2022-10-24T12:59:59.339Z,100142.56
2022-10-24T13:05:19.657Z,100147.50
2022-10-24T13:10:24.956Z,100145.44
2022-10-24T13:15:28.548Z,100134.34
2022-10-24T13:20:45.957Z,100134.53
2022-10-24T13:25:47.760Z,100159.16
2022-10-24T13:30:53.148Z,100165.03
2022-10-24T13:36:08.465Z,100150.25
2022-10-24T13:41:11.130Z,100160.22
2022-10-24T13:46:13.332Z,100155.00
2022-10-24T13:51:21.596Z,100164.72
2022-10-24T13:56:23.243Z,100178.00
2022-10-24T14:01:30.169Z,100170.38
2022-10-24T14:06:32.814Z,100170.31
2022-10-24T14:11:35.156Z,100175.59
2022-10-24T14:16:36.789Z,100167.50
2022-10-24T14:21:42.461Z,100169.56
2022-10-24T14:26:45.611Z,100167.09
2022-10-24T14:31:47.340Z,100170.81
2022-10-24T14:36:48.989Z,100180.69
2022-10-24T14:41:51.507Z,100184.53
2022-10-24T14:47:04.371Z,100179.47
2022-10-24T14:52:16.829Z,100186.69
2022-10-24T14:57:20.196Z,100183.44
2022-10-24T15:02:26.339Z,100188.09
2022-10-24T15:07:29.999Z,100192.78
2022-10-24T15:12:33.859Z,100180.69
2022-10-24T15:17:35.554Z,100181.81
2022-10-24T15:22:38.315Z,100188.22
2022-10-24T15:27:41.166Z,100189.22
2022-10-24T15:32:43.094Z,100195.53
2022-10-24T15:38:04.601Z,100208.16
2022-10-24T15:43:08.571Z,100203.00
2022-10-24T15:48:10.229Z,100211.13
2022-10-24T15:53:19.991Z,100207.75
2022-10-24T15:58:21.645Z,100210.53
2022-10-24T16:03:23.461Z,100223.91
2022-10-24T16:08:25.361Z,100220.50
2022-10-24T16:13:27.035Z,100212.69
2022-10-24T16:18:28.678Z,100214.47
2022-10-24T16:23:30.452Z,100226.91
2022-10-24T16:28:32.111Z,100242.00
2022-10-24T16:33:33.836Z,100239.66
2022-10-24T16:38:35.569Z,100243.44
2022-10-24T16:43:40.413Z,100248.06
2022-10-24T16:48:44.363Z,100239.63
2022-10-24T16:53:45.993Z,100249.53
2022-10-24T16:58:47.679Z,100254.25
2022-10-24T17:03:49.347Z,100256.31
2022-10-24T17:08:52.381Z,100253.84
2022-10-24T17:13:54.008Z,100247.88
2022-10-24T17:19:12.438Z,100248.88
2022-10-24T17:24:24.528Z,100249.84
2022-10-24T17:29:31.036Z,100260.56
2022-10-24T17:34:33.271Z,100259.88
2022-10-24T17:39:41.691Z,100253.03
2022-10-24T17:44:47.606Z,100265.44
2022-10-24T17:49:49.270Z,100265.56
2022-10-24T17:54:50.963Z,100280.66
2022-10-24T17:59:54.068Z,100277.19
2022-10-24T18:04:55.888Z,100280.78
2022-10-24T18:10:00.348Z,100282.56
2022-10-24T18:15:02.298Z,100288.50
2022-10-24T18:20:05.524Z,100286.69
2022-10-24T18:25:08.183Z,100290.06
2022-10-24T18:30:10.561Z,100297.94
2022-10-24T18:35:12.383Z,100307.66
2022-10-24T18:40:14.512Z,100296.31
2022-10-24T18:45:24.380Z,100306.03
2022-10-24T18:50:26.426Z,100309.56
2022-10-24T18:55:28.995Z,100315.78
2022-10-24T19:00:31.988Z,100315.91
2022-10-24T19:05:43.834Z,100322.25
2022-10-24T19:10:45.896Z,100320.63
2022-10-24T19:15:51.818Z,100322.59
2022-10-24T19:20:53.581Z,100325.44
2022-10-24T19:25:55.292Z,100325.59
2022-10-24T19:30:57.265Z,100333.69
2022-10-24T19:36:02.185Z,100319.81
2022-10-24T19:41:06.315Z,100322.66
2022-10-24T19:46:19.252Z,100328.94
2022-10-24T19:51:21.606Z,100332.50
2022-10-24T19:56:25.386Z,100334.38
2022-10-24T20:01:30.911Z,100346.69
2022-10-24T20:06:32.956Z,100339.75
2022-10-24T20:11:34.694Z,100348.59
2022-10-24T20:16:36.439Z,100357.44
2022-10-24T20:21:38.172Z,100371.53
2022-10-24T20:26:39.879Z,100364.63
2022-10-24T20:31:44.439Z,100371.78
2022-10-24T20:36:47.914Z,100374.53
2022-10-24T20:41:51.898Z,100372.84
2022-10-24T20:46:58.897Z,100370.38
2022-10-24T20:52:00.624Z,100375.75
2022-10-24T20:57:02.283Z,100381.13
2022-10-24T21:02:04.064Z,100379.44
2022-10-24T21:07:05.795Z,100385.66
2022-10-24T21:12:07.461Z,100398.81
2022-10-24T21:17:09.117Z,100391.81
2022-10-24T21:22:10.829Z,100403.16
2022-10-24T21:27:12.554Z,100399.66
2022-10-24T21:32:14.206Z,100399.66
2022-10-24T21:37:15.864Z,100398.78
2022-10-24T21:42:17.662Z,100399.66
2022-10-24T21:47:19.449Z,100402.28
2022-10-24T21:52:21.182Z,100406.75
2022-10-24T21:57:22.842Z,100410.28
2022-10-24T22:02:24.619Z,100414.69
2022-10-24T22:12:28.924Z,100425.19
2022-10-24T22:17:30.572Z,100429.59
2022-10-24T22:22:32.233Z,100438.38
2022-10-24T22:27:33.907Z,100442.78
2022-10-24T22:32:35.708Z,100448.09
2022-10-24T22:37:37.542Z,100454.25
2022-10-24T22:42:39.239Z,100456.00
2022-10-24T22:48:08.694Z,100454.19
2022-10-24T22:53:11.772Z,100461.09
2022-10-24T22:58:13.596Z,100466.31
2022-10-24T23:03:33.422Z,100463.69
2022-10-24T23:08:39.292Z,100461.09
2022-10-24T23:13:41.253Z,100461.16
2022-10-24T23:18:43.092Z,100471.66
2022-10-24T23:23:44.941Z,100478.72
2022-10-24T23:28:59.056Z,100472.63
2022-10-24T23:34:00.976Z,100478.75
2022-10-24T23:39:02.640Z,100478.78
2022-10-24T23:44:04.659Z,100480.53
2022-10-24T23:49:20.793Z,100484.88
2022-10-24T23:54:25.189Z,100491.06
2022-10-24T23:59:26.887Z,100487.69
